PWSweather.com
Personal Weather Stations
Station Observations

ChardChardGB

Lat: 50.877408, Lon: -2.94964741

Elevation: 341

Station Type: WS3083

http://www.merriott-astro.co.uk/weather/index.htm

High Low Average
Temperature 50.0°F10.0°C 43.2°F6.2°C 45.8°F7.7°C
Dew Point 40.8°F4.9°C 33.0°F0.6°C 37.6°F3.1°C
Winds 13.2 mph 21.2 kmh 0.8 mph 1.3 kmh 8.0 mph ENE12.9 kmh ENE
Wind Gusts 17.4 mph28.0 kmh 1.6 mph2.6 kmh 10.0 mph16.1 kmh
Humidity 88% 62% 73%
Pressure 29.64 in1003.7 mb 29.57 in1001.4 mb -
Precipitation 0.00 in0.0 mm - -
Hour Temp Dew Point Humidity Winds Wind Gusts Pressure Precip Precip Rate Daily Precip Total
12:00 AM 45.5°F7.5°C 39.7°F4.3°C 80% 0.8 mph NE1.3 kmh NE 1.6 mph2.6 kmh 29.63 in1003.4 mb 0.00 in0.0 mm 0.00 in0.0 mm 0.00 in0.0 mm
12:10 AM 45.5°F7.5°C 39.7°F4.3°C 80% 1.5 mph N2.4 kmh N 3.1 mph5.0 kmh 29.64 in1003.7 mb 0.00 in0.0 mm 0.00 in0.0 mm 0.00 in0.0 mm
12:20 AM 45.5°F7.5°C 39.7°F4.3°C 80% 3.0 mph N4.8 kmh N 4.5 mph7.2 kmh 29.63 in1003.4 mb 0.00 in0.0 mm 0.00 in0.0 mm 0.00 in0.0 mm
12:30 AM 45.5°F7.5°C 39.7°F4.3°C 80% 4.3 mph NNE6.9 kmh NNE 6.9 mph11.1 kmh 29.63 in1003.4 mb 0.00 in0.0 mm 0.00 in0.0 mm 0.00 in0.0 mm
12:40 AM 45.5°F7.5°C 39.7°F4.3°C 80% 3.0 mph NE4.8 kmh NE 4.5 mph7.2 kmh 29.63 in1003.4 mb 0.00 in0.0 mm 0.00 in0.0 mm 0.00 in0.0 mm
12:50 AM 45.5°F7.5°C 39.7°F4.3°C 80% 2.5 mph NE4.0 kmh NE 3.1 mph5.0 kmh 29.63 in1003.4 mb 0.00 in0.0 mm 0.00 in0.0 mm 0.00 in0.0 mm
01:00 AM 45.5°F7.5°C 39.7°F4.3°C 80% 3.8 mph ENE6.1 kmh ENE 5.4 mph8.7 kmh 29.62 in1003.0 mb 0.00 in0.0 mm 0.00 in0.0 mm 0.00 in0.0 mm
01:10 AM 45.3°F7.4°C 40.8°F4.9°C 84% 2.8 mph ENE4.5 kmh ENE 4.5 mph7.2 kmh 29.62 in1003.0 mb 0.00 in0.0 mm 0.00 in0.0 mm 0.00 in0.0 mm
01:20 AM 45.3°F7.4°C 40.8°F4.9°C 84% 2.3 mph NE3.7 kmh NE 4.5 mph7.2 kmh 29.62 in1003.0 mb 0.00 in0.0 mm 0.00 in0.0 mm 0.00 in0.0 mm
01:30 AM 45.1°F7.3°C 40.6°F4.8°C 84% 2.1 mph ENE3.4 kmh ENE 3.1 mph5.0 kmh 29.62 in1003.0 mb 0.00 in0.0 mm 0.00 in0.0 mm 0.00 in0.0 mm
01:40 AM 45.0°F7.2°C 40.7°F4.8°C 85% 3.2 mph NE5.1 kmh NE 6.0 mph9.7 kmh 29.62 in1003.0 mb 0.00 in0.0 mm 0.00 in0.0 mm 0.00 in0.0 mm
01:50 AM 44.8°F7.1°C 40.6°F4.8°C 85% 3.7 mph NE6.0 kmh NE 5.4 mph8.7 kmh 29.62 in1003.0 mb 0.00 in0.0 mm 0.00 in0.0 mm 0.00 in0.0 mm
02:00 AM 44.6°F7.0°C 40.4°F4.7°C 85% 3.4 mph NE5.5 kmh NE 4.5 mph7.2 kmh 29.61 in1002.7 mb 0.00 in0.0 mm 0.00 in0.0 mm 0.00 in0.0 mm
02:10 AM 44.4°F6.9°C 40.2°F4.6°C 85% 2.8 mph NNE4.5 kmh NNE 3.8 mph6.1 kmh 29.61 in1002.7 mb 0.00 in0.0 mm 0.00 in0.0 mm 0.00 in0.0 mm
02:20 AM 44.2°F6.8°C 40.0°F4.4°C 85% 4.0 mph NE6.4 kmh NE 4.5 mph7.2 kmh 29.61 in1002.7 mb 0.00 in0.0 mm 0.00 in0.0 mm 0.00 in0.0 mm
02:30 AM 44.1°F6.7°C 39.8°F4.3°C 85% 3.8 mph ENE6.1 kmh ENE 4.5 mph7.2 kmh 29.61 in1002.7 mb 0.00 in0.0 mm 0.00 in0.0 mm 0.00 in0.0 mm
02:40 AM 43.9°F6.6°C 40.0°F4.4°C 86% 4.1 mph ENE6.6 kmh ENE 5.4 mph8.7 kmh 29.61 in1002.7 mb 0.00 in0.0 mm 0.00 in0.0 mm 0.00 in0.0 mm
02:50 AM 43.9°F6.6°C 40.0°F4.4°C 86% 3.8 mph ENE6.1 kmh ENE 4.5 mph7.2 kmh 29.61 in1002.7 mb 0.00 in0.0 mm 0.00 in0.0 mm 0.00 in0.0 mm
03:00 AM 43.7°F6.5°C 39.8°F4.3°C 86% 3.6 mph NE5.8 kmh NE 5.4 mph8.7 kmh 29.61 in1002.7 mb 0.00 in0.0 mm 0.00 in0.0 mm 0.00 in0.0 mm
03:10 AM 43.7°F6.5°C 39.8°F4.3°C 86% 3.5 mph E5.6 kmh E 5.4 mph8.7 kmh 29.61 in1002.7 mb 0.00 in0.0 mm 0.00 in0.0 mm 0.00 in0.0 mm
03:20 AM 43.5°F6.4°C 39.9°F4.4°C 87% 3.5 mph NE5.6 kmh NE 4.5 mph7.2 kmh 29.61 in1002.7 mb 0.00 in0.0 mm 0.00 in0.0 mm 0.00 in0.0 mm
03:30 AM 43.5°F6.4°C 39.9°F4.4°C 87% 4.6 mph ENE7.4 kmh ENE 5.4 mph8.7 kmh 29.61 in1002.7 mb 0.00 in0.0 mm 0.00 in0.0 mm 0.00 in0.0 mm
03:40 AM 43.5°F6.4°C 39.9°F4.4°C 87% 4.6 mph NE7.4 kmh NE 5.4 mph8.7 kmh 29.61 in1002.7 mb 0.00 in0.0 mm 0.00 in0.0 mm 0.00 in0.0 mm
03:50 AM 43.3°F6.3°C 39.7°F4.3°C 87% 4.0 mph E6.4 kmh E 5.4 mph8.7 kmh 29.62 in1003.0 mb 0.00 in0.0 mm 0.00 in0.0 mm 0.00 in0.0 mm
04:00 AM 43.3°F6.3°C 40.0°F4.4°C 88% 4.4 mph NE7.1 kmh NE 6.0 mph9.7 kmh 29.61 in1002.7 mb 0.00 in0.0 mm 0.00 in0.0 mm 0.00 in0.0 mm
04:10 AM 43.2°F6.2°C 39.9°F4.4°C 88% 4.8 mph ENE7.7 kmh ENE 5.4 mph8.7 kmh 29.61 in1002.7 mb 0.00 in0.0 mm 0.00 in0.0 mm 0.00 in0.0 mm
04:20 AM 43.2°F6.2°C 39.9°F4.4°C 88% 4.7 mph ENE7.6 kmh ENE 6.0 mph9.7 kmh 29.61 in1002.7 mb 0.00 in0.0 mm 0.00 in0.0 mm 0.00 in0.0 mm
04:30 AM 43.2°F6.2°C 39.9°F4.4°C 88% 4.8 mph ENE7.7 kmh ENE 6.9 mph11.1 kmh 29.61 in1002.7 mb 0.00 in0.0 mm 0.00 in0.0 mm 0.00 in0.0 mm
04:40 AM 43.2°F6.2°C 39.9°F4.4°C 88% 4.5 mph ENE7.2 kmh ENE 6.0 mph9.7 kmh 29.61 in1002.7 mb 0.00 in0.0 mm 0.00 in0.0 mm 0.00 in0.0 mm
04:50 AM 43.2°F6.2°C 39.9°F4.4°C 88% 5.1 mph NE8.2 kmh NE 6.9 mph11.1 kmh 29.61 in1002.7 mb 0.00 in0.0 mm 0.00 in0.0 mm 0.00 in0.0 mm
05:00 AM 43.2°F6.2°C 39.9°F4.4°C 88% 5.6 mph NE9.0 kmh NE 8.3 mph13.4 kmh 29.62 in1003.0 mb 0.00 in0.0 mm 0.00 in0.0 mm 0.00 in0.0 mm
05:10 AM 43.2°F6.2°C 39.9°F4.4°C 88% 4.9 mph N7.9 kmh N 8.3 mph13.4 kmh 29.61 in1002.7 mb 0.00 in0.0 mm 0.00 in0.0 mm 0.00 in0.0 mm
05:20 AM 43.2°F6.2°C 39.9°F4.4°C 88% 4.5 mph NE7.2 kmh NE 6.0 mph9.7 kmh 29.62 in1003.0 mb 0.00 in0.0 mm 0.00 in0.0 mm 0.00 in0.0 mm
05:30 AM 43.3°F6.3°C 39.7°F4.3°C 87% 6.0 mph NE9.7 kmh NE 7.6 mph12.2 kmh 29.62 in1003.0 mb 0.00 in0.0 mm 0.00 in0.0 mm 0.00 in0.0 mm
05:40 AM 43.3°F6.3°C 39.4°F4.1°C 86% 6.6 mph ENE10.6 kmh ENE 10.7 mph17.2 kmh 29.62 in1003.0 mb 0.00 in0.0 mm 0.00 in0.0 mm 0.00 in0.0 mm
05:50 AM 43.5°F6.4°C 39.3°F4.1°C 85% 5.0 mph E8.0 kmh E 8.3 mph13.4 kmh 29.62 in1003.0 mb 0.00 in0.0 mm 0.00 in0.0 mm 0.00 in0.0 mm
06:00 AM 43.5°F6.4°C 39.0°F3.9°C 84% 5.0 mph NE8.0 kmh NE 7.6 mph12.2 kmh 29.62 in1003.0 mb 0.00 in0.0 mm 0.00 in0.0 mm 0.00 in0.0 mm
06:10 AM 43.3°F6.3°C 38.5°F3.6°C 83% 6.2 mph NE10.0 kmh NE 8.3 mph13.4 kmh 29.62 in1003.0 mb 0.00 in0.0 mm 0.00 in0.0 mm 0.00 in0.0 mm
06:20 AM 43.3°F6.3°C 38.5°F3.6°C 83% 5.7 mph E9.2 kmh E 7.6 mph12.2 kmh 29.61 in1002.7 mb 0.00 in0.0 mm 0.00 in0.0 mm 0.00 in0.0 mm
06:30 AM 43.5°F6.4°C 38.4°F3.6°C 82% 8.5 mph E13.7 kmh E 13.0 mph20.9 kmh 29.61 in1002.7 mb 0.00 in0.0 mm 0.00 in0.0 mm 0.00 in0.0 mm
06:40 AM 43.5°F6.4°C 38.1°F3.4°C 81% 7.8 mph NE12.6 kmh NE 10.7 mph17.2 kmh 29.62 in1003.0 mb 0.00 in0.0 mm 0.00 in0.0 mm 0.00 in0.0 mm
06:50 AM 43.7°F6.5°C 37.9°F3.3°C 80% 8.9 mph ENE14.3 kmh ENE 11.4 mph18.3 kmh 29.61 in1002.7 mb 0.00 in0.0 mm 0.00 in0.0 mm 0.00 in0.0 mm
07:00 AM 43.7°F6.5°C 37.6°F3.1°C 79% 8.4 mph E13.5 kmh E 10.7 mph17.2 kmh 29.62 in1003.0 mb 0.00 in0.0 mm 0.00 in0.0 mm 0.00 in0.0 mm
07:10 AM 43.9°F6.6°C 37.5°F3.1°C 78% 7.5 mph ENE12.1 kmh ENE 10.7 mph17.2 kmh 29.62 in1003.0 mb 0.00 in0.0 mm 0.00 in0.0 mm 0.00 in0.0 mm
07:20 AM 43.9°F6.6°C 37.5°F3.1°C 78% 6.0 mph NE9.7 kmh NE 9.2 mph14.8 kmh 29.63 in1003.4 mb 0.00 in0.0 mm 0.00 in0.0 mm 0.00 in0.0 mm
07:30 AM 44.2°F6.8°C 37.5°F3.1°C 77% 6.4 mph NE10.3 kmh NE 8.3 mph13.4 kmh 29.62 in1003.0 mb 0.00 in0.0 mm 0.00 in0.0 mm 0.00 in0.0 mm
07:40 AM 44.2°F6.8°C 37.8°F3.2°C 78% 5.8 mph NE9.3 kmh NE 8.3 mph13.4 kmh 29.62 in1003.0 mb 0.00 in0.0 mm 0.00 in0.0 mm 0.00 in0.0 mm
07:50 AM 44.6°F7.0°C 38.5°F3.6°C 79% 4.2 mph ENE6.8 kmh ENE 7.6 mph12.2 kmh 29.63 in1003.4 mb 0.00 in0.0 mm 0.00 in0.0 mm 0.00 in0.0 mm
08:00 AM 44.8°F7.1°C 38.0°F3.3°C 77% 6.5 mph NE10.5 kmh NE 8.3 mph13.4 kmh 29.62 in1003.0 mb 0.00 in0.0 mm 0.00 in0.0 mm 0.00 in0.0 mm
08:10 AM 45.3°F7.4°C 38.2°F3.4°C 76% 8.7 mph E14.0 kmh E 13.6 mph21.9 kmh 29.62 in1003.0 mb 0.00 in0.0 mm 0.00 in0.0 mm 0.00 in0.0 mm
08:20 AM 45.5°F7.5°C 36.3°F2.4°C 70% 9.1 mph NE14.6 kmh NE 15.9 mph25.6 kmh 29.62 in1003.0 mb 0.00 in0.0 mm 0.00 in0.0 mm 0.00 in0.0 mm
08:30 AM 45.7°F7.6°C 36.5°F2.5°C 70% 10.8 mph E17.4 kmh E 13.0 mph20.9 kmh 29.61 in1002.7 mb 0.00 in0.0 mm 0.00 in0.0 mm 0.00 in0.0 mm
08:40 AM 46.0°F7.8°C 36.8°F2.7°C 70% 10.6 mph NE17.1 kmh NE 14.5 mph23.3 kmh 29.62 in1003.0 mb 0.00 in0.0 mm 0.00 in0.0 mm 0.00 in0.0 mm
08:50 AM 46.9°F8.3°C 37.7°F3.2°C 70% 7.8 mph NE12.6 kmh NE 10.7 mph17.2 kmh 29.62 in1003.0 mb 0.00 in0.0 mm 0.00 in0.0 mm 0.00 in0.0 mm
09:00 AM 47.3°F8.5°C 37.7°F3.2°C 69% 9.7 mph ENE15.6 kmh ENE 13.0 mph20.9 kmh 29.62 in1003.0 mb 0.00 in0.0 mm 0.00 in0.0 mm 0.00 in0.0 mm
09:10 AM 47.1°F8.4°C 37.5°F3.1°C 69% 8.3 mph ENE13.4 kmh ENE 10.7 mph17.2 kmh 29.61 in1002.7 mb 0.00 in0.0 mm 0.00 in0.0 mm 0.00 in0.0 mm
09:20 AM 46.9°F8.3°C 37.7°F3.2°C 70% 10.1 mph E16.3 kmh E 13.6 mph21.9 kmh 29.62 in1003.0 mb 0.00 in0.0 mm 0.00 in0.0 mm 0.00 in0.0 mm
09:30 AM 46.6°F8.1°C 37.3°F2.9°C 70% 10.5 mph NE16.9 kmh NE 14.5 mph23.3 kmh 29.62 in1003.0 mb 0.00 in0.0 mm 0.00 in0.0 mm 0.00 in0.0 mm
09:40 AM 46.8°F8.2°C 37.5°F3.1°C 70% 9.6 mph NE15.4 kmh NE 13.0 mph20.9 kmh 29.62 in1003.0 mb 0.00 in0.0 mm 0.00 in0.0 mm 0.00 in0.0 mm
09:50 AM 47.8°F8.8°C 38.5°F3.6°C 70% 7.2 mph NE11.6 kmh NE 10.7 mph17.2 kmh 29.61 in1002.7 mb 0.00 in0.0 mm 0.00 in0.0 mm 0.00 in0.0 mm
10:00 AM 47.3°F8.5°C 37.7°F3.2°C 69% 8.5 mph NE13.7 kmh NE 13.6 mph21.9 kmh 29.61 in1002.7 mb 0.00 in0.0 mm 0.00 in0.0 mm 0.00 in0.0 mm
10:10 AM 47.7°F8.7°C 37.6°F3.1°C 68% 8.6 mph NE13.8 kmh NE 14.5 mph23.3 kmh 29.61 in1002.7 mb 0.00 in0.0 mm 0.00 in0.0 mm 0.00 in0.0 mm
10:20 AM 47.1°F8.4°C 37.1°F2.8°C 68% 8.2 mph ENE13.2 kmh ENE 12.1 mph19.5 kmh 29.62 in1003.0 mb 0.00 in0.0 mm 0.00 in0.0 mm 0.00 in0.0 mm
10:30 AM 46.8°F8.2°C 37.5°F3.1°C 70% 7.8 mph NE12.6 kmh NE 10.7 mph17.2 kmh 29.62 in1003.0 mb 0.00 in0.0 mm 0.00 in0.0 mm 0.00 in0.0 mm
10:40 AM 46.6°F8.1°C 37.3°F2.9°C 70% 6.5 mph ENE10.5 kmh ENE 8.3 mph13.4 kmh 29.62 in1003.0 mb 0.00 in0.0 mm 0.00 in0.0 mm 0.00 in0.0 mm
10:50 AM 46.9°F8.3°C 38.0°F3.3°C 71% 7.6 mph E12.2 kmh E 9.8 mph15.8 kmh 29.61 in1002.7 mb 0.00 in0.0 mm 0.00 in0.0 mm 0.00 in0.0 mm
11:00 AM 47.3°F8.5°C 38.0°F3.3°C 70% 7.8 mph NE12.6 kmh NE 11.4 mph18.3 kmh 29.61 in1002.7 mb 0.00 in0.0 mm 0.00 in0.0 mm 0.00 in0.0 mm
11:10 AM 47.7°F8.7°C 38.4°F3.6°C 70% 7.5 mph ENE12.1 kmh ENE 13.0 mph20.9 kmh 29.61 in1002.7 mb 0.00 in0.0 mm 0.00 in0.0 mm 0.00 in0.0 mm
11:20 AM 48.9°F9.4°C 39.6°F4.2°C 70% 6.6 mph ENE10.6 kmh ENE 9.2 mph14.8 kmh 29.61 in1002.7 mb 0.00 in0.0 mm 0.00 in0.0 mm 0.00 in0.0 mm
11:30 AM 48.6°F9.2°C 38.5°F3.6°C 68% 7.3 mph E11.7 kmh E 9.2 mph14.8 kmh 29.60 in1002.4 mb 0.00 in0.0 mm 0.00 in0.0 mm 0.00 in0.0 mm
11:40 AM 49.3°F9.6°C 38.4°F3.6°C 66% 7.8 mph NE12.6 kmh NE 9.8 mph15.8 kmh 29.60 in1002.4 mb 0.00 in0.0 mm 0.00 in0.0 mm 0.00 in0.0 mm
11:50 AM 47.8°F8.8°C 37.0°F2.8°C 66% 8.6 mph ENE13.8 kmh ENE 17.4 mph28.0 kmh 29.60 in1002.4 mb 0.00 in0.0 mm 0.00 in0.0 mm 0.00 in0.0 mm
12:00 PM 47.5°F8.6°C 38.2°F3.4°C 70% 8.3 mph NE13.4 kmh NE 11.4 mph18.3 kmh 29.60 in1002.4 mb 0.00 in0.0 mm 0.00 in0.0 mm 0.00 in0.0 mm
12:10 PM 47.7°F8.7°C 38.4°F3.6°C 70% 7.7 mph NE12.4 kmh NE 12.1 mph19.5 kmh 29.60 in1002.4 mb 0.00 in0.0 mm 0.00 in0.0 mm 0.00 in0.0 mm
12:20 PM 47.8°F8.8°C 38.5°F3.6°C 70% 8.9 mph ENE14.3 kmh ENE 11.4 mph18.3 kmh 29.60 in1002.4 mb 0.00 in0.0 mm 0.00 in0.0 mm 0.00 in0.0 mm
12:30 PM 48.0°F8.9°C 38.3°F3.5°C 69% 8.2 mph ENE13.2 kmh ENE 9.8 mph15.8 kmh 29.61 in1002.7 mb 0.00 in0.0 mm 0.00 in0.0 mm 0.00 in0.0 mm
12:40 PM 48.4°F9.1°C 38.3°F3.5°C 68% 8.6 mph NE13.8 kmh NE 10.7 mph17.2 kmh 29.60 in1002.4 mb 0.00 in0.0 mm 0.00 in0.0 mm 0.00 in0.0 mm
12:50 PM 48.7°F9.3°C 37.9°F3.3°C 66% 9.7 mph NE15.6 kmh NE 13.0 mph20.9 kmh 29.61 in1002.7 mb 0.00 in0.0 mm 0.00 in0.0 mm 0.00 in0.0 mm
01:00 PM 48.7°F9.3°C 37.9°F3.3°C 66% 9.0 mph NNE14.5 kmh NNE 12.1 mph19.5 kmh 29.59 in1002.0 mb 0.00 in0.0 mm 0.00 in0.0 mm 0.00 in0.0 mm
01:10 PM 48.7°F9.3°C 38.3°F3.5°C 67% 9.1 mph ENE14.6 kmh ENE 13.0 mph20.9 kmh 29.59 in1002.0 mb 0.00 in0.0 mm 0.00 in0.0 mm 0.00 in0.0 mm
01:20 PM 49.3°F9.6°C 39.2°F4.0°C 68% 7.4 mph NE11.9 kmh NE 9.8 mph15.8 kmh 29.59 in1002.0 mb 0.00 in0.0 mm 0.00 in0.0 mm 0.00 in0.0 mm
01:30 PM 50.0°F10.0°C 38.3°F3.5°C 64% 8.2 mph ENE13.2 kmh ENE 11.4 mph18.3 kmh 29.59 in1002.0 mb 0.00 in0.0 mm 0.00 in0.0 mm 0.00 in0.0 mm
01:40 PM 50.0°F10.0°C 37.5°F3.1°C 62% 10.0 mph E16.1 kmh E 13.0 mph20.9 kmh 29.58 in1001.7 mb 0.00 in0.0 mm 0.00 in0.0 mm 0.00 in0.0 mm
01:50 PM 48.0°F8.9°C 37.2°F2.9°C 66% 9.8 mph E15.8 kmh E 13.6 mph21.9 kmh 29.59 in1002.0 mb 0.00 in0.0 mm 0.00 in0.0 mm 0.00 in0.0 mm
02:00 PM 47.3°F8.5°C 38.0°F3.3°C 70% 9.3 mph NE15.0 kmh NE 13.6 mph21.9 kmh 29.58 in1001.7 mb 0.00 in0.0 mm 0.00 in0.0 mm 0.00 in0.0 mm
02:10 PM 47.3°F8.5°C 38.0°F3.3°C 70% 9.4 mph ENE15.1 kmh ENE 13.0 mph20.9 kmh 29.58 in1001.7 mb 0.00 in0.0 mm 0.00 in0.0 mm 0.00 in0.0 mm
02:20 PM 47.5°F8.6°C 38.2°F3.4°C 70% 8.6 mph NE13.8 kmh NE 11.4 mph18.3 kmh 29.58 in1001.7 mb 0.00 in0.0 mm 0.00 in0.0 mm 0.00 in0.0 mm
02:30 PM 47.8°F8.8°C 38.5°F3.6°C 70% 7.2 mph E11.6 kmh E 11.4 mph18.3 kmh 29.58 in1001.7 mb 0.00 in0.0 mm 0.00 in0.0 mm 0.00 in0.0 mm
02:40 PM 48.2°F9.0°C 38.1°F3.4°C 68% 7.1 mph NNE11.4 kmh NNE 9.8 mph15.8 kmh 29.58 in1001.7 mb 0.00 in0.0 mm 0.00 in0.0 mm 0.00 in0.0 mm
02:50 PM 47.8°F8.8°C 37.4°F3.0°C 67% 9.8 mph NE15.8 kmh NE 15.2 mph24.5 kmh 29.58 in1001.7 mb 0.00 in0.0 mm 0.00 in0.0 mm 0.00 in0.0 mm
03:00 PM 47.7°F8.7°C 37.3°F2.9°C 67% 13.2 mph ENE21.2 kmh ENE 15.2 mph24.5 kmh 29.58 in1001.7 mb 0.00 in0.0 mm 0.00 in0.0 mm 0.00 in0.0 mm
03:10 PM 47.8°F8.8°C 37.0°F2.8°C 66% 9.6 mph ENE15.4 kmh ENE 13.6 mph21.9 kmh 29.58 in1001.7 mb 0.00 in0.0 mm 0.00 in0.0 mm 0.00 in0.0 mm
03:20 PM 48.0°F8.9°C 37.2°F2.9°C 66% 9.9 mph E15.9 kmh E 14.5 mph23.3 kmh 29.58 in1001.7 mb 0.00 in0.0 mm 0.00 in0.0 mm 0.00 in0.0 mm
03:30 PM 48.2°F9.0°C 37.8°F3.2°C 67% 10.9 mph NE17.5 kmh NE 15.2 mph24.5 kmh 29.58 in1001.7 mb 0.00 in0.0 mm 0.00 in0.0 mm 0.00 in0.0 mm
03:40 PM 48.7°F9.3°C 37.9°F3.3°C 66% 10.7 mph ENE17.2 kmh ENE 13.6 mph21.9 kmh 29.58 in1001.7 mb 0.00 in0.0 mm 0.00 in0.0 mm 0.00 in0.0 mm
03:50 PM 48.0°F8.9°C 36.8°F2.7°C 65% 9.3 mph NE15.0 kmh NE 13.0 mph20.9 kmh 29.57 in1001.4 mb 0.00 in0.0 mm 0.00 in0.0 mm 0.00 in0.0 mm
04:00 PM 47.5°F8.6°C 36.7°F2.6°C 66% 8.7 mph E14.0 kmh E 12.1 mph19.5 kmh 29.57 in1001.4 mb 0.00 in0.0 mm 0.00 in0.0 mm 0.00 in0.0 mm
04:10 PM 47.5°F8.6°C 37.1°F2.8°C 67% 9.5 mph NE15.3 kmh NE 12.1 mph19.5 kmh 29.57 in1001.4 mb 0.00 in0.0 mm 0.00 in0.0 mm 0.00 in0.0 mm
04:20 PM 47.5°F8.6°C 37.5°F3.1°C 68% 9.4 mph ENE15.1 kmh ENE 14.5 mph23.3 kmh 29.58 in1001.7 mb 0.00 in0.0 mm 0.00 in0.0 mm 0.00 in0.0 mm
04:30 PM 47.5°F8.6°C 37.1°F2.8°C 67% 9.2 mph NE14.8 kmh NE 11.4 mph18.3 kmh 29.58 in1001.7 mb 0.00 in0.0 mm 0.00 in0.0 mm 0.00 in0.0 mm
04:40 PM 47.5°F8.6°C 36.7°F2.6°C 66% 9.3 mph E15.0 kmh E 13.0 mph20.9 kmh 29.58 in1001.7 mb 0.00 in0.0 mm 0.00 in0.0 mm 0.00 in0.0 mm
04:50 PM 47.5°F8.6°C 36.3°F2.4°C 65% 9.9 mph E15.9 kmh E 13.6 mph21.9 kmh 29.58 in1001.7 mb 0.00 in0.0 mm 0.00 in0.0 mm 0.00 in0.0 mm
05:00 PM 47.5°F8.6°C 36.3°F2.4°C 65% 10.7 mph E17.2 kmh E 14.5 mph23.3 kmh 29.57 in1001.4 mb 0.00 in0.0 mm 0.00 in0.0 mm 0.00 in0.0 mm
05:10 PM 47.3°F8.5°C 36.5°F2.5°C 66% 10.2 mph ENE16.4 kmh ENE 13.0 mph20.9 kmh 29.58 in1001.7 mb 0.00 in0.0 mm 0.00 in0.0 mm 0.00 in0.0 mm
05:20 PM 47.1°F8.4°C 36.4°F2.4°C 66% 9.8 mph NE15.8 kmh NE 14.5 mph23.3 kmh 29.57 in1001.4 mb 0.00 in0.0 mm 0.00 in0.0 mm 0.00 in0.0 mm
05:30 PM 47.1°F8.4°C 36.7°F2.6°C 67% 9.7 mph ENE15.6 kmh ENE 14.5 mph23.3 kmh 29.58 in1001.7 mb 0.00 in0.0 mm 0.00 in0.0 mm 0.00 in0.0 mm
05:40 PM 46.9°F8.3°C 35.8°F2.1°C 65% 11.5 mph ENE18.5 kmh ENE 17.4 mph28.0 kmh 29.58 in1001.7 mb 0.00 in0.0 mm 0.00 in0.0 mm 0.00 in0.0 mm
05:50 PM 46.8°F8.2°C 36.0°F2.2°C 66% 10.8 mph NE17.4 kmh NE 13.6 mph21.9 kmh 29.58 in1001.7 mb 0.00 in0.0 mm 0.00 in0.0 mm 0.00 in0.0 mm
06:00 PM 46.6°F8.1°C 36.2°F2.3°C 67% 10.0 mph NE16.1 kmh NE 13.6 mph21.9 kmh 29.58 in1001.7 mb 0.00 in0.0 mm 0.00 in0.0 mm 0.00 in0.0 mm
06:10 PM 46.6°F8.1°C 36.2°F2.3°C 67% 10.2 mph E16.4 kmh E 13.0 mph20.9 kmh 29.58 in1001.7 mb 0.00 in0.0 mm 0.00 in0.0 mm 0.00 in0.0 mm
06:20 PM 46.6°F8.1°C 35.8°F2.1°C 66% 10.9 mph NE17.5 kmh NE 14.5 mph23.3 kmh 29.58 in1001.7 mb 0.00 in0.0 mm 0.00 in0.0 mm 0.00 in0.0 mm
06:30 PM 46.4°F8.0°C 36.0°F2.2°C 67% 10.9 mph ENE17.5 kmh ENE 13.0 mph20.9 kmh 29.58 in1001.7 mb 0.00 in0.0 mm 0.00 in0.0 mm 0.00 in0.0 mm
06:40 PM 46.2°F7.9°C 35.9°F2.2°C 67% 11.6 mph ENE18.7 kmh ENE 16.8 mph27.0 kmh 29.59 in1002.0 mb 0.00 in0.0 mm 0.00 in0.0 mm 0.00 in0.0 mm
06:50 PM 46.2°F7.9°C 35.9°F2.2°C 67% 8.1 mph E13.0 kmh E 10.7 mph17.2 kmh 29.58 in1001.7 mb 0.00 in0.0 mm 0.00 in0.0 mm 0.00 in0.0 mm
07:00 PM 46.0°F7.8°C 35.7°F2.1°C 67% 9.0 mph E14.5 kmh E 13.0 mph20.9 kmh 29.57 in1001.4 mb 0.00 in0.0 mm 0.00 in0.0 mm 0.00 in0.0 mm
07:10 PM 46.0°F7.8°C 35.3°F1.8°C 66% 11.1 mph NNE17.9 kmh NNE 13.6 mph21.9 kmh 29.57 in1001.4 mb 0.00 in0.0 mm 0.00 in0.0 mm 0.00 in0.0 mm
07:20 PM 45.9°F7.7°C 34.8°F1.6°C 65% 11.2 mph ENE18.0 kmh ENE 14.5 mph23.3 kmh 29.57 in1001.4 mb 0.00 in0.0 mm 0.00 in0.0 mm 0.00 in0.0 mm
07:30 PM 45.9°F7.7°C 34.8°F1.6°C 65% 9.8 mph ENE15.8 kmh ENE 11.4 mph18.3 kmh 29.57 in1001.4 mb 0.00 in0.0 mm 0.00 in0.0 mm 0.00 in0.0 mm
07:40 PM 45.7°F7.6°C 35.0°F1.7°C 66% 8.7 mph ENE14.0 kmh ENE 13.0 mph20.9 kmh 29.58 in1001.7 mb 0.00 in0.0 mm 0.00 in0.0 mm 0.00 in0.0 mm
07:50 PM 45.7°F7.6°C 35.0°F1.7°C 66% 8.8 mph ENE14.2 kmh ENE 13.0 mph20.9 kmh 29.59 in1002.0 mb 0.00 in0.0 mm 0.00 in0.0 mm 0.00 in0.0 mm
08:00 PM 45.5°F7.5°C 35.2°F1.8°C 67% 6.0 mph E9.7 kmh E 6.9 mph11.1 kmh 29.59 in1002.0 mb 0.00 in0.0 mm 0.00 in0.0 mm 0.00 in0.0 mm
08:10 PM 45.3°F7.4°C 36.8°F2.7°C 72% 5.9 mph N9.5 kmh N 8.3 mph13.4 kmh 29.58 in1001.7 mb 0.00 in0.0 mm 0.00 in0.0 mm 0.00 in0.0 mm
08:20 PM 45.3°F7.4°C 36.5°F2.5°C 71% 6.5 mph NE10.5 kmh NE 10.7 mph17.2 kmh 29.58 in1001.7 mb 0.00 in0.0 mm 0.00 in0.0 mm 0.00 in0.0 mm
08:30 PM 45.1°F7.3°C 36.3°F2.4°C 71% 5.7 mph NE9.2 kmh NE 9.8 mph15.8 kmh 29.59 in1002.0 mb 0.00 in0.0 mm 0.00 in0.0 mm 0.00 in0.0 mm
08:40 PM 45.1°F7.3°C 36.3°F2.4°C 71% 6.9 mph NW11.1 kmh NW 9.8 mph15.8 kmh 29.59 in1002.0 mb 0.00 in0.0 mm 0.00 in0.0 mm 0.00 in0.0 mm
08:50 PM 45.0°F7.2°C 36.1°F2.3°C 71% 6.5 mph NE10.5 kmh NE 9.8 mph15.8 kmh 29.58 in1001.7 mb 0.00 in0.0 mm 0.00 in0.0 mm 0.00 in0.0 mm
09:00 PM 45.0°F7.2°C 36.1°F2.3°C 71% 8.3 mph NNE13.4 kmh NNE 11.4 mph18.3 kmh 29.58 in1001.7 mb 0.00 in0.0 mm 0.00 in0.0 mm 0.00 in0.0 mm
09:10 PM 45.0°F7.2°C 36.1°F2.3°C 71% 7.7 mph NE12.4 kmh NE 9.8 mph15.8 kmh 29.59 in1002.0 mb 0.00 in0.0 mm 0.00 in0.0 mm 0.00 in0.0 mm
09:20 PM 45.0°F7.2°C 36.1°F2.3°C 71% 6.5 mph ENE10.5 kmh ENE 9.2 mph14.8 kmh 29.58 in1001.7 mb 0.00 in0.0 mm 0.00 in0.0 mm 0.00 in0.0 mm
09:30 PM 44.8°F7.1°C 36.0°F2.2°C 71% 7.4 mph NE11.9 kmh NE 9.2 mph14.8 kmh 29.58 in1001.7 mb 0.00 in0.0 mm 0.00 in0.0 mm 0.00 in0.0 mm
09:40 PM 44.6°F7.0°C 35.8°F2.1°C 71% 7.0 mph E11.3 kmh E 9.2 mph14.8 kmh 29.59 in1002.0 mb 0.00 in0.0 mm 0.00 in0.0 mm 0.00 in0.0 mm
09:50 PM 44.8°F7.1°C 35.2°F1.8°C 69% 8.0 mph NE12.9 kmh NE 10.7 mph17.2 kmh 29.58 in1001.7 mb 0.00 in0.0 mm 0.00 in0.0 mm 0.00 in0.0 mm
10:00 PM 44.8°F7.1°C 34.5°F1.4°C 67% 9.4 mph NE15.1 kmh NE 13.0 mph20.9 kmh 29.58 in1001.7 mb 0.00 in0.0 mm 0.00 in0.0 mm 0.00 in0.0 mm
10:10 PM 44.8°F7.1°C 34.1°F1.2°C 66% 8.7 mph NE14.0 kmh NE 13.6 mph21.9 kmh 29.58 in1001.7 mb 0.00 in0.0 mm 0.00 in0.0 mm 0.00 in0.0 mm
10:20 PM 44.8°F7.1°C 34.1°F1.2°C 66% 9.7 mph NE15.6 kmh NE 15.9 mph25.6 kmh 29.58 in1001.7 mb 0.00 in0.0 mm 0.00 in0.0 mm 0.00 in0.0 mm
10:30 PM 44.8°F7.1°C 34.1°F1.2°C 66% 9.6 mph NE15.4 kmh NE 13.6 mph21.9 kmh 29.58 in1001.7 mb 0.00 in0.0 mm 0.00 in0.0 mm 0.00 in0.0 mm
10:40 PM 44.8°F7.1°C 33.7°F0.9°C 65% 9.9 mph E15.9 kmh E 11.4 mph18.3 kmh 29.59 in1002.0 mb 0.00 in0.0 mm 0.00 in0.0 mm 0.00 in0.0 mm
10:50 PM 44.6°F7.0°C 33.2°F0.7°C 64% 11.8 mph NE19.0 kmh NE 17.4 mph28.0 kmh 29.58 in1001.7 mb 0.00 in0.0 mm 0.00 in0.0 mm 0.00 in0.0 mm
11:00 PM 44.4°F6.9°C 33.0°F0.6°C 64% 12.2 mph NE19.6 kmh NE 17.4 mph28.0 kmh 29.58 in1001.7 mb 0.00 in0.0 mm 0.00 in0.0 mm 0.00 in0.0 mm
11:10 PM 44.1°F6.7°C 33.1°F0.6°C 65% 11.4 mph NE18.3 kmh NE 15.2 mph24.5 kmh 29.57 in1001.4 mb 0.00 in0.0 mm 0.00 in0.0 mm 0.00 in0.0 mm
11:20 PM 43.9°F6.6°C 33.3°F0.7°C 66% 9.4 mph NE15.1 kmh NE 11.4 mph18.3 kmh 29.57 in1001.4 mb 0.00 in0.0 mm 0.00 in0.0 mm 0.00 in0.0 mm
11:30 PM 43.7°F6.5°C 33.5°F0.8°C 67% 11.0 mph NE17.7 kmh NE 17.4 mph28.0 kmh 29.57 in1001.4 mb 0.00 in0.0 mm 0.00 in0.0 mm 0.00 in0.0 mm
11:40 PM 43.5°F6.4°C 33.3°F0.7°C 67% 9.2 mph NNW14.8 kmh NNW 12.1 mph19.5 kmh 29.57 in1001.4 mb 0.00 in0.0 mm 0.00 in0.0 mm 0.00 in0.0 mm
11:50 PM 43.3°F6.3°C 33.5°F0.8°C 68% 8.6 mph ENE13.8 kmh ENE 11.4 mph18.3 kmh 29.57 in1001.4 mb 0.00 in0.0 mm 0.00 in0.0 mm 0.00 in0.0 mm